Time;durP1;ratioP1;P1;durP2;ratioP2;P2;SDS_P1;SDS_P2;PMS_P1;PMS_P2;Temp;Humidity;BMP_temperature;BMP_pressure;BME280_temperature;BME280_humidity;BME280_pressure;Samples;Min_cycle;Max_cycle;Signal;HPM_P1;HPM_P2
2021/08/18 00:00:47;;;;;;;3.93;2.70;;;;;;;23.13;95.76;97676.56;4966965;28;20221;-68
2021/08/18 00:03:14;;;;;;;3.93;2.90;;;;;;;23.06;95.94;97670.41;4967371;28;20650;-67
2021/08/18 00:05:41;;;;;;;2.93;2.63;;;;;;;23.10;96.00;97676.50;4942851;28;20203;-66
2021/08/18 00:08:09;;;;;;;2.47;2.23;;;;;;;23.10;96.15;97676.50;4963621;28;20303;-68
2021/08/18 00:10:36;;;;;;;3.63;2.90;;;;;;;23.05;96.11;97665.25;4958839;28;20553;-67
2021/08/18 00:13:03;;;;;;;4.03;2.90;;;;;;;23.08;95.91;97671.31;4976265;28;20613;-67
2021/08/18 00:15:30;;;;;;;4.17;2.80;;;;;;;23.09;96.05;97665.38;4962713;28;20657;-64
2021/08/18 00:18:00;;;;;;;3.03;2.60;;;;;;;23.09;96.11;97672.19;4968292;28;20287;-67
2021/08/18 00:20:27;;;;;;;2.77;2.57;;;;;;;23.09;95.91;97669.63;4972840;28;20203;-65
2021/08/18 00:22:54;;;;;;;4.93;2.90;;;;;;;23.08;96.08;97671.31;4961598;28;20299;-68
2021/08/18 00:25:21;;;;;;;3.23;2.90;;;;;;;23.08;96.02;97668.75;4967101;28;20270;-67
2021/08/18 00:27:47;;;;;;;3.30;2.80;;;;;;;23.09;95.65;97661.91;4964864;28;20295;-67
2021/08/18 00:30:14;;;;;;;3.33;2.87;;;;;;;23.09;96.12;97667.03;4966973;28;20238;-66
2021/08/18 00:32:40;;;;;;;3.37;2.97;;;;;;;23.09;96.06;97661.91;4970157;28;20238;-68
2021/08/18 00:35:07;;;;;;;4.60;3.53;;;;;;;23.10;96.14;97666.25;4956725;28;20307;-67
2021/08/18 00:37:34;;;;;;;3.10;2.80;;;;;;;23.10;96.04;97672.25;4968117;28;20208;-65
2021/08/18 00:40:00;;;;;;;5.83;2.90;;;;;;;23.11;96.01;97662.84;4978811;28;20534;-64
2021/08/18 00:42:27;;;;;;;3.97;3.07;;;;;;;23.12;96.12;97669.72;4968087;28;20625;-67
2021/08/18 00:44:54;;;;;;;3.10;2.80;;;;;;;23.12;96.07;97667.16;4964523;28;20281;-67
2021/08/18 00:47:20;;;;;;;3.17;2.70;;;;;;;23.12;96.37;97664.59;4959099;28;20628;-67
2021/08/18 00:49:47;;;;;;;3.23;2.70;;;;;;;23.11;95.86;97663.72;4970940;28;20649;-66
2021/08/18 00:52:14;;;;;;;3.27;2.80;;;;;;;23.12;95.94;97662.03;4962868;28;20207;-66
2021/08/18 00:54:49;;;;;;;4.47;3.10;;;;;;;23.13;95.94;97658.63;4961884;28;20259;-68
2021/08/18 00:57:15;;;;;;;4.00;3.07;;;;;;;23.12;96.29;97660.31;4972067;28;20302;-67
2021/08/18 00:59:42;;;;;;;3.83;3.07;;;;;;;23.12;95.53;97655.19;4960915;28;20231;-64
2021/08/18 01:02:08;;;;;;;2.77;2.57;;;;;;;23.07;95.82;97648.22;4965580;28;20641;-67
2021/08/18 01:04:35;;;;;;;3.07;2.70;;;;;;;23.12;95.50;97650.06;4954854;28;20227;-67
2021/08/18 01:07:02;;;;;;;3.87;2.60;;;;;;;23.12;95.83;97650.06;4961955;28;20254;-64
2021/08/18 01:09:29;;;;;;;3.60;2.87;;;;;;;23.12;95.82;97646.66;4978169;28;20287;-67
2021/08/18 01:11:55;;;;;;;2.83;2.63;;;;;;;23.13;95.32;97651.81;4969259;28;20242;-65
2021/08/18 01:14:22;;;;;;;3.90;2.83;;;;;;;23.13;96.06;97650.94;4964960;28;20258;-68
2021/08/18 01:16:49;;;;;;;4.20;2.70;;;;;;;23.14;95.73;97656.09;4969065;28;20266;-66
2021/08/18 01:19:17;;;;;;;3.37;2.77;;;;;;;23.13;95.96;97646.69;4965909;28;20303;-67
2021/08/18 01:21:45;;;;;;;3.40;2.97;;;;;;;23.13;95.90;97641.56;4964006;28;20195;-67
2021/08/18 01:24:11;;;;;;;3.67;2.80;;;;;;;23.14;95.97;97642.41;4965748;28;20262;-67
2021/08/18 01:26:38;;;;;;;3.00;2.70;;;;;;;23.14;96.02;97642.41;4971137;28;20227;-67
2021/08/18 01:29:05;;;;;;;3.00;2.70;;;;;;;23.13;95.82;97633.88;4967888;28;20232;-67
2021/08/18 01:31:32;;;;;;;2.97;2.67;;;;;;;23.13;95.89;97633.88;4966870;28;20303;-67
2021/08/18 01:34:02;;;;;;;2.80;2.60;;;;;;;23.14;95.83;97630.47;4968317;28;20589;-67
2021/08/18 01:36:29;;;;;;;4.73;3.10;;;;;;;23.13;95.76;97633.88;4964401;28;20306;-67
2021/08/18 01:39:06;;;;;;;2.90;2.70;;;;;;;23.09;95.79;97633.72;4968263;28;20232;-67
2021/08/18 01:41:33;;;;;;;3.20;2.90;;;;;;;23.13;95.97;97639.00;4970910;28;20629;-66
2021/08/18 01:43:59;;;;;;;2.87;2.57;;;;;;;23.14;95.89;97635.59;4967696;28;20266;-65
2021/08/18 01:46:26;;;;;;;2.90;2.60;;;;;;;23.14;95.82;97637.28;4962477;28;20232;-67
2021/08/18 01:48:53;;;;;;;3.40;3.10;;;;;;;23.14;95.82;97638.16;4966113;28;20215;-64
2021/08/18 01:51:20;;;;;;;3.27;2.90;;;;;;;23.10;95.73;97627.78;4961344;28;20599;-67
2021/08/18 01:53:46;;;;;;;3.20;2.90;;;;;;;23.14;95.65;97635.59;4972825;28;20255;-65
2021/08/18 01:56:13;;;;;;;3.07;2.60;;;;;;;23.15;95.87;97636.47;4963667;28;20256;-64
2021/08/18 01:58:41;;;;;;;3.17;2.77;;;;;;;23.14;95.96;97630.47;4960207;28;20291;-67
2021/08/18 02:01:14;;;;;;;3.17;2.90;;;;;;;23.15;95.89;97626.22;4967585;28;20247;-67
2021/08/18 02:03:41;;;;;;;2.80;2.50;;;;;;;23.13;95.90;97633.00;4958840;28;20219;-64
2021/08/18 02:06:07;;;;;;;3.33;2.97;;;;;;;23.11;95.79;97622.69;4963470;28;20279;-66
2021/08/18 02:08:34;;;;;;;2.90;2.70;;;;;;;23.11;95.81;97624.38;4963779;28;20204;-66
2021/08/18 02:11:00;;;;;;;3.27;2.90;;;;;;;23.11;96.15;97626.94;4961727;28;20242;-67
2021/08/18 02:13:27;;;;;;;3.97;2.80;;;;;;;23.09;96.11;97624.34;4970096;28;20658;-66
2021/08/18 02:15:54;;;;;;;5.27;3.07;;;;;;;23.09;96.24;97620.91;4962681;28;20259;-66
2021/08/18 02:18:21;;;;;;;4.17;2.57;;;;;;;23.08;96.05;97629.44;4962576;28;20211;-67
2021/08/18 02:20:47;;;;;;;2.97;2.67;;;;;;;23.07;96.19;97618.31;4958732;28;20200;-66
2021/08/18 02:23:14;;;;;;;3.00;2.70;;;;;;;23.08;96.11;97609.81;4965096;28;20251;-65
2021/08/18 02:25:41;;;;;;;3.67;2.77;;;;;;;23.08;96.17;97622.63;4969551;28;20258;-67
2021/08/18 02:28:08;;;;;;;3.13;2.87;;;;;;;23.08;96.29;97608.94;4965012;28;20245;-67
2021/08/18 02:30:34;;;;;;;3.83;2.60;;;;;;;23.08;96.04;97612.38;4958948;28;20251;-67
2021/08/18 02:33:01;;;;;;;2.83;2.63;;;;;;;23.04;96.08;97609.69;4960254;28;20246;-65
2021/08/18 02:35:28;;;;;;;3.90;3.07;;;;;;;23.08;96.22;97612.38;4962857;28;20258;-67
2021/08/18 02:37:56;;;;;;;3.33;3.00;;;;;;;23.09;96.16;97614.09;4964615;28;20446;-66
2021/08/18 02:40:22;;;;;;;3.20;2.70;;;;;;;23.08;96.11;97607.25;4959605;28;20844;-64
2021/08/18 02:42:51;;;;;;;2.60;2.40;;;;;;;23.09;96.16;97606.41;4961536;28;20205;-66
2021/08/18 02:45:19;;;;;;;3.17;2.63;;;;;;;23.10;96.12;97602.16;4961764;28;20227;-64
2021/08/18 02:47:46;;;;;;;2.90;2.60;;;;;;;23.09;96.13;97606.41;4960242;28;20700;-68
2021/08/18 02:50:17;;;;;;;3.17;2.87;;;;;;;23.10;96.10;97607.28;4963209;28;20283;-67
2021/08/18 02:52:43;;;;;;;2.77;2.57;;;;;;;23.11;96.03;97611.56;4961824;28;20737;-65
2021/08/18 02:55:10;;;;;;;3.20;2.90;;;;;;;23.10;96.02;97608.16;4965150;28;20255;-65
2021/08/18 02:57:37;;;;;;;2.60;2.40;;;;;;;23.10;95.84;97608.16;4959860;28;20235;-66
2021/08/18 03:00:04;;;;;;;4.20;2.90;;;;;;;23.09;96.08;97606.41;4966458;28;20291;-67
2021/08/18 03:02:31;;;;;;;3.00;2.70;;;;;;;23.10;96.17;97608.16;4969084;28;20211;-67
2021/08/18 03:04:58;;;;;;;3.00;2.43;;;;;;;23.10;96.04;97613.28;4966392;28;20219;-67
2021/08/18 03:07:25;;;;;;;3.30;3.00;;;;;;;23.11;96.14;97609.00;4966873;28;20234;-68
2021/08/18 03:09:51;;;;;;;3.30;3.00;;;;;;;23.11;95.85;97614.13;4963226;28;20239;-67
2021/08/18 03:12:18;;;;;;;2.90;2.70;;;;;;;23.11;96.01;97607.31;4965886;28;20525;-67
2021/08/18 03:14:44;;;;;;;3.20;2.80;;;;;;;23.12;95.94;97610.75;4971477;28;20273;-67
2021/08/18 03:17:12;;;;;;;3.03;2.60;;;;;;;23.12;96.05;97605.63;4961075;28;20259;-65
2021/08/18 03:19:39;;;;;;;3.00;2.70;;;;;;;23.12;95.97;97600.50;4963272;28;20230;-67
2021/08/18 03:22:06;;;;;;;3.63;2.90;;;;;;;23.13;96.10;97605.66;4963111;28;20231;-67
2021/08/18 03:24:32;;;;;;;3.13;2.83;;;;;;;23.12;95.70;97606.47;4968492;28;20254;-66
2021/08/18 03:26:59;;;;;;;3.30;2.73;;;;;;;23.07;95.82;97597.78;4966939;28;20275;-68
2021/08/18 03:29:26;;;;;;;3.40;2.80;;;;;;;23.14;95.85;97609.06;4969075;28;20290;-67
2021/08/18 03:31:52;;;;;;;3.37;3.07;;;;;;;23.13;96.20;97610.78;4964421;28;20590;-67
2021/08/18 03:34:19;;;;;;;3.13;2.83;;;;;;;23.12;95.75;97609.03;4969442;28;20657;-66
2021/08/18 03:36:46;;;;;;;3.37;2.63;;;;;;;23.13;95.99;97605.66;4961867;28;20315;-64
2021/08/18 03:39:12;;;;;;;2.87;2.67;;;;;;;23.13;95.75;97609.91;4963394;28;20625;-65
2021/08/18 03:41:39;;;;;;;3.00;2.70;;;;;;;23.13;95.88;97618.47;4967218;28;20298;-68
2021/08/18 03:44:05;;;;;;;2.87;2.50;;;;;;;23.13;95.93;97615.03;4960396;28;20777;-67
2021/08/18 03:46:32;;;;;;;3.43;2.93;;;;;;;23.12;95.90;97611.59;4966118;28;20230;-66
2021/08/18 03:49:00;;;;;;;3.20;2.90;;;;;;;23.14;96.18;97616.75;4965989;28;20256;-67
2021/08/18 03:51:26;;;;;;;2.77;2.57;;;;;;;23.13;95.68;97618.47;4965922;28;20238;-66
2021/08/18 03:53:53;;;;;;;3.27;2.53;;;;;;;23.13;95.65;97623.63;4962207;28;20259;-67
2021/08/18 03:56:19;;;;;;;3.60;2.53;;;;;;;23.14;95.93;97621.91;4960738;28;20315;-65
2021/08/18 03:58:46;;;;;;;2.90;2.70;;;;;;;23.13;96.13;97623.63;4962712;28;20647;-67
2021/08/18 04:01:13;;;;;;;3.20;2.90;;;;;;;23.14;96.05;97632.16;4964290;28;20258;-67
2021/08/18 04:03:40;;;;;;;2.77;2.53;;;;;;;23.14;95.83;97633.03;4960826;28;20232;-67
2021/08/18 04:06:07;;;;;;;3.60;2.80;;;;;;;23.13;95.85;97626.19;4964773;28;20662;-67
2021/08/18 04:08:34;;;;;;;3.10;2.80;;;;;;;23.14;95.45;97630.47;4966521;28;20692;-67
2021/08/18 04:11:04;;;;;;;2.70;2.50;;;;;;;23.13;95.76;97627.84;4967215;28;20238;-66
2021/08/18 04:13:31;;;;;;;3.40;2.73;;;;;;;23.10;95.86;97626.09;4971407;28;20724;-67
2021/08/18 04:15:58;;;;;;;3.00;2.70;;;;;;;23.11;95.90;97626.94;4965692;28;20589;-68
2021/08/18 04:18:25;;;;;;;3.13;2.83;;;;;;;23.09;96.06;97626.03;4969338;28;20230;-67
2021/08/18 04:20:51;;;;;;;3.20;2.90;;;;;;;23.08;96.25;97627.75;4970793;28;20210;-66
2021/08/18 04:23:18;;;;;;;3.50;2.80;;;;;;;23.07;95.99;97623.44;4972348;28;20227;-67
2021/08/18 04:25:44;;;;;;;3.20;2.57;;;;;;;23.08;95.92;97634.56;4965286;28;20295;-67
2021/08/18 04:28:11;;;;;;;3.80;3.03;;;;;;;23.08;96.07;97644.81;4967584;28;20231;-67
2021/08/18 04:30:37;;;;;;;2.73;2.53;;;;;;;23.03;96.08;97628.44;4964421;28;20240;-67
2021/08/18 04:33:04;;;;;;;2.60;2.40;;;;;;;23.07;96.23;97632.84;4973244;28;20236;-67
2021/08/18 04:35:31;;;;;;;3.93;2.80;;;;;;;23.08;96.19;97639.69;4964090;28;20732;-67
2021/08/18 04:37:57;;;;;;;3.20;2.90;;;;;;;23.07;96.18;97641.38;4968251;28;20410;-66
2021/08/18 04:40:24;;;;;;;3.20;2.70;;;;;;;23.03;96.29;97625.88;4968109;28;20282;-67
2021/08/18 04:42:51;;;;;;;4.47;2.80;;;;;;;23.08;96.34;97640.56;4973630;28;20294;-67
2021/08/18 04:45:18;;;;;;;3.07;2.77;;;;;;;23.09;96.07;97641.41;4971976;28;20318;-67
2021/08/18 04:47:45;;;;;;;3.83;2.73;;;;;;;23.09;95.96;97641.41;4964455;28;20617;-67
2021/08/18 04:50:13;;;;;;;2.93;2.60;;;;;;;23.10;96.15;97645.72;4968502;28;20621;-67
2021/08/18 04:52:39;;;;;;;3.70;3.20;;;;;;;23.09;96.04;97647.41;4964461;28;20250;-67
2021/08/18 04:55:07;;;;;;;2.90;2.63;;;;;;;23.10;96.23;97648.28;4967403;28;20250;-66
2021/08/18 04:57:33;;;;;;;3.13;2.80;;;;;;;23.10;96.04;97649.19;4971965;28;20306;-68
2021/08/18 05:00:00;;;;;;;3.47;2.90;;;;;;;23.10;95.91;97645.72;4971833;28;20203;-67
2021/08/18 05:02:26;;;;;;;3.20;2.90;;;;;;;23.11;96.09;97647.44;4972399;28;20290;-67
2021/08/18 05:04:53;;;;;;;3.13;2.83;;;;;;;23.11;96.05;97652.59;4972511;28;20220;-67
2021/08/18 05:07:20;;;;;;;2.83;2.53;;;;;;;23.12;96.19;97652.63;4970995;28;20278;-66
2021/08/18 05:09:46;;;;;;;5.80;3.20;;;;;;;23.12;95.96;97649.22;4972196;28;20265;-66
2021/08/18 05:12:13;;;;;;;3.30;3.00;;;;;;;23.12;95.78;97649.22;4971676;28;20195;-67
2021/08/18 05:14:40;;;;;;;3.27;2.97;;;;;;;23.13;95.35;97654.38;4961573;28;20271;-67
2021/08/18 05:17:06;;;;;;;4.10;3.53;;;;;;;23.14;94.99;97655.22;4960313;28;20650;-68
2021/08/18 05:19:33;;;;;;;4.33;3.67;;;;;;;23.13;94.53;97654.38;4957464;28;20236;-66
2021/08/18 05:22:00;;;;;;;4.30;3.60;;;;;;;23.14;93.42;97653.53;4956666;28;20288;-67
2021/08/18 05:24:26;;;;;;;5.30;3.93;;;;;;;23.15;92.95;97656.97;4956966;28;20768;-68
2021/08/18 05:26:53;;;;;;;6.00;4.60;;;;;;;23.14;93.43;97658.66;4959999;28;20262;-66
2021/08/18 05:29:19;;;;;;;6.40;4.60;;;;;;;23.14;92.89;97656.09;4960386;28;20254;-68
2021/08/18 05:31:46;;;;;;;6.33;4.80;;;;;;;23.14;93.11;97656.09;4957053;28;20228;-68
2021/08/18 05:34:13;;;;;;;6.93;5.07;;;;;;;23.15;93.18;97654.41;4958625;28;20224;-66
2021/08/18 05:36:39;;;;;;;6.60;4.63;;;;;;;23.15;93.24;97664.66;4957322;28;20206;-67
2021/08/18 05:39:06;;;;;;;5.60;4.70;;;;;;;23.15;93.39;97656.97;4958058;28;20206;-67
2021/08/18 05:41:33;;;;;;;6.47;5.00;;;;;;;23.14;93.32;97663.78;4956894;28;20287;-67
2021/08/18 05:43:59;;;;;;;4.90;4.30;;;;;;;22.89;93.29;97620.41;5086732;22;20589;-70
2021/08/18 05:46:27;;;;;;;5.23;4.70;;;;;;;23.09;93.37;97652.53;4955263;28;20224;-68
2021/08/18 05:48:54;;;;;;;4.97;4.23;;;;;;;23.13;93.50;97659.50;4956195;28;20712;-68
2021/08/18 05:51:20;;;;;;;5.47;4.50;;;;;;;23.09;93.29;97662.78;4946247;28;20616;-69
2021/08/18 05:53:50;;;;;;;4.77;4.33;;;;;;;23.15;93.50;97668.06;4958503;28;20224;-68
2021/08/18 05:56:17;;;;;;;6.10;4.77;;;;;;;23.09;93.26;97657.66;4955286;28;20292;-69
2021/08/18 05:58:44;;;;;;;5.13;4.63;;;;;;;23.15;93.41;97660.38;4957778;28;20252;-68
2021/08/18 06:01:10;;;;;;;4.53;4.00;;;;;;;23.16;92.79;97664.72;4954888;28;20244;-68
2021/08/18 06:03:37;;;;;;;6.33;4.70;;;;;;;23.16;93.21;97663.84;4960125;28;20204;-68
2021/08/18 06:06:04;;;;;;;5.40;4.50;;;;;;;23.08;92.90;97643.13;4969051;28;20278;-68
2021/08/18 06:08:30;;;;;;;6.70;4.60;;;;;;;23.11;92.70;97648.34;4952261;28;20258;-68
2021/08/18 06:10:57;;;;;;;5.07;4.57;;;;;;;23.15;92.35;97657.81;4960054;28;20203;-68
2021/08/18 06:13:23;;;;;;;6.20;4.90;;;;;;;23.11;92.59;97655.16;4969196;28;20231;-69
2021/08/18 06:15:51;;;;;;;6.27;5.13;;;;;;;23.15;92.02;97660.38;4972288;28;20253;-71
2021/08/18 06:18:17;;;;;;;6.13;4.70;;;;;;;23.10;91.79;97649.19;4964456;28;20286;-72
2021/08/18 06:20:44;;;;;;;6.83;5.07;;;;;;;23.14;91.22;97660.34;4967904;28;20231;-68
2021/08/18 06:23:11;;;;;;;5.83;5.17;;;;;;;23.07;90.28;97653.34;4968534;28;20250;-69
2021/08/18 06:25:37;;;;;;;5.00;4.50;;;;;;;22.79;90.09;97615.88;4963424;28;20251;-68
2021/08/18 06:28:04;;;;;;;6.30;4.57;;;;;;;22.89;89.85;97629.81;4953215;28;20332;-69
2021/08/18 06:30:30;;;;;;;8.57;4.90;;;;;;;23.11;89.81;97663.72;4963301;28;20231;-70
2021/08/18 06:32:57;;;;;;;5.73;4.60;;;;;;;23.11;90.16;97663.72;4965974;28;20384;-67
2021/08/18 06:35:24;;;;;;;7.40;4.97;;;;;;;23.02;90.15;97644.66;4966523;28;20250;-68
2021/08/18 06:37:50;;;;;;;5.53;4.60;;;;;;;23.11;90.26;97661.16;4967009;28;20314;-68
2021/08/18 06:40:17;;;;;;;5.23;4.60;;;;;;;23.02;90.12;97653.22;4970585;28;20223;-71
2021/08/18 06:42:44;;;;;;;5.83;4.37;;;;;;;23.08;90.05;97661.06;4966167;28;20294;-72
2021/08/18 06:45:11;;;;;;;5.23;4.40;;;;;;;23.13;90.03;97661.19;4966244;28;20262;-67
2021/08/18 06:47:38;;;;;;;9.80;4.40;;;;;;;23.13;89.86;97664.63;4960997;28;20696;-69
2021/08/18 06:50:06;;;;;;;4.47;4.07;;;;;;;22.83;89.93;97611.72;4968527;28;20299;-66
2021/08/18 06:52:33;;;;;;;5.23;4.40;;;;;;;23.01;89.87;97645.50;4958689;28;20258;-69
2021/08/18 06:54:59;;;;;;;6.87;4.53;;;;;;;23.14;89.78;97662.91;4954232;28;20318;-67
2021/08/18 06:57:26;;;;;;;6.57;4.40;;;;;;;23.06;89.71;97649.03;4966125;28;20223;-70
2021/08/18 06:59:52;;;;;;;7.53;4.57;;;;;;;23.10;89.71;97656.00;4965851;28;20207;-72
2021/08/18 07:02:19;;;;;;;4.70;3.77;;;;;;;23.08;89.71;97652.50;4961389;28;20290;-69
2021/08/18 07:04:46;;;;;;;5.73;4.57;;;;;;;23.16;89.57;97663.84;4964162;28;20277;-68
2021/08/18 07:07:12;;;;;;;4.80;3.73;;;;;;;23.11;89.47;97648.34;4967441;28;20249;-70
2021/08/18 07:09:39;;;;;;;4.37;3.80;;;;;;;23.08;89.79;97642.25;4960091;28;20246;-70
2021/08/18 07:12:06;;;;;;;5.07;4.03;;;;;;;23.16;89.50;97659.59;4966126;28;20613;-68
2021/08/18 07:14:33;;;;;;;5.50;4.40;;;;;;;23.03;89.25;97639.56;4963436;28;20254;-71
2021/08/18 07:16:59;;;;;;;4.70;4.10;;;;;;;23.13;89.13;97656.94;4962399;28;20203;-70
2021/08/18 07:19:26;;;;;;;4.57;3.67;;;;;;;23.16;89.10;97658.69;4957761;28;20256;-68
2021/08/18 07:21:53;;;;;;;8.00;4.23;;;;;;;23.16;88.88;97657.00;4966197;28;20212;-68
2021/08/18 07:24:19;;;;;;;4.50;3.80;;;;;;;23.17;88.47;97657.88;4967890;28;20751;-68
2021/08/18 07:26:47;;;;;;;4.57;4.00;;;;;;;23.15;88.28;97655.25;4964031;28;20290;-71
2021/08/18 07:29:14;;;;;;;4.40;3.97;;;;;;;23.08;88.75;97638.00;4967222;28;20196;-68
2021/08/18 07:31:40;;;;;;;4.87;4.07;;;;;;;23.18;88.41;97655.34;4961482;28;20705;-69
2021/08/18 07:34:07;;;;;;;6.37;4.37;;;;;;;23.19;88.10;97659.66;4967135;28;20220;-68
2021/08/18 07:36:33;;;;;;;4.70;3.90;;;;;;;23.12;88.22;97636.41;4966961;28;20199;-71
2021/08/18 07:39:00;;;;;;;5.83;4.03;;;;;;;23.19;88.25;97649.41;4961777;28;20235;-71
2021/08/18 07:41:28;;;;;;;5.87;3.77;;;;;;;23.19;88.04;97657.09;4967992;28;20283;-72
2021/08/18 07:43:54;;;;;;;4.30;3.87;;;;;;;22.95;87.98;97612.03;4960088;28;20200;-68
2021/08/18 07:46:22;;;;;;;4.87;4.07;;;;;;;23.20;88.19;97663.06;4961686;28;20605;-68
2021/08/18 07:48:49;;;;;;;6.90;3.83;;;;;;;23.20;87.99;97661.38;4948240;28;20630;-66
2021/08/18 07:51:15;;;;;;;8.57;3.97;;;;;;;23.12;87.77;97652.63;4968527;28;20287;-70
2021/08/18 07:53:42;;;;;;;4.07;3.63;;;;;;;22.96;87.63;97627.44;4967688;28;20234;-71
2021/08/18 07:56:09;;;;;;;4.67;3.67;;;;;;;22.91;87.47;97620.44;4961610;28;20255;-68
2021/08/18 07:58:36;;;;;;;4.83;3.50;;;;;;;23.20;87.54;97666.50;4970113;28;20306;-70
2021/08/18 08:01:04;;;;;;;4.60;3.80;;;;;;;23.20;87.22;97666.50;4957907;28;20282;-70
2021/08/18 08:03:31;;;;;;;3.93;3.50;;;;;;;23.12;87.38;97651.78;4954392;28;20212;-71
2021/08/18 08:05:58;;;;;;;4.70;3.50;;;;;;;23.21;87.42;97664.81;4958990;28;20246;-73
2021/08/18 08:08:24;;;;;;;4.53;4.00;;;;;;;23.21;87.59;97663.09;4960033;28;20208;-74
2021/08/18 08:10:51;;;;;;;4.17;3.50;;;;;;;23.22;87.08;97669.13;4958675;28;20705;-69
2021/08/18 08:13:18;;;;;;;5.37;3.47;;;;;;;23.22;86.83;97667.44;4957243;28;20638;-70
2021/08/18 08:15:44;;;;;;;4.87;3.90;;;;;;;23.23;86.82;97665.72;4959614;28;20298;-71
2021/08/18 08:18:11;;;;;;;5.93;3.77;;;;;;;23.22;86.72;97674.25;4959708;28;20228;-75
2021/08/18 08:20:39;;;;;;;6.47;3.67;;;;;;;23.22;86.68;97674.25;4958065;28;20212;-70
2021/08/18 08:23:05;;;;;;;5.77;4.03;;;;;;;23.22;86.84;97671.69;4958096;28;20634;-73
2021/08/18 08:25:32;;;;;;;4.40;3.53;;;;;;;23.12;86.61;97659.47;4958013;28;20536;-68
2021/08/18 08:28:03;;;;;;;7.17;4.00;;;;;;;23.23;86.59;97675.97;4958441;28;20203;-74
2021/08/18 08:30:29;;;;;;;4.10;3.70;;;;;;;23.22;86.85;97674.25;4958076;28;20290;-69
2021/08/18 08:32:56;;;;;;;4.10;3.40;;;;;;;23.23;86.70;97676.84;4955835;28;20783;-73
2021/08/18 08:35:23;;;;;;;5.50;3.40;;;;;;;23.22;86.02;97681.94;4958416;28;20228;-72
2021/08/18 08:37:49;;;;;;;4.40;3.67;;;;;;;23.22;85.88;97671.69;4958279;28;20686;-73
2021/08/18 08:40:17;;;;;;;4.37;3.60;;;;;;;23.22;85.60;97669.13;4957459;28;20625;-67
2021/08/18 08:42:44;;;;;;;4.20;3.80;;;;;;;23.14;85.14;97665.47;4957408;28;20326;-71
2021/08/18 08:45:11;;;;;;;5.30;3.80;;;;;;;23.22;85.30;97670.00;4938730;28;20720;-69
2021/08/18 08:47:37;;;;;;;4.00;3.60;;;;;;;23.22;84.84;97671.69;4956245;28;20294;-69
2021/08/18 08:50:05;;;;;;;5.03;3.60;;;;;;;23.22;84.84;97682.81;4956442;28;20331;-74
2021/08/18 08:52:33;;;;;;;5.30;3.87;;;;;;;23.14;84.75;97668.03;4954091;28;20338;-70
2021/08/18 08:55:00;;;;;;;4.47;4.03;;;;;;;23.11;84.70;97662.84;4939717;28;20301;-73
2021/08/18 08:57:27;;;;;;;5.10;3.30;;;;;;;23.22;84.90;97672.56;4937726;28;20311;-75
2021/08/18 08:59:53;;;;;;;4.77;3.93;;;;;;;23.10;84.87;97646.63;4938703;28;20768;-70
2021/08/18 09:02:20;;;;;;;5.70;3.87;;;;;;;23.18;84.82;97668.16;4954928;28;20359;-71
2021/08/18 09:04:48;;;;;;;5.27;3.90;;;;;;;23.13;84.67;97659.50;4953928;28;20231;-71
2021/08/18 09:07:22;;;;;;;4.30;3.73;;;;;;;23.22;84.59;97670.00;4954118;28;20250;-71
2021/08/18 09:09:59;;;;;;;4.57;4.00;;;;;;;23.22;84.46;97679.38;4956325;28;20234;-71
2021/08/18 09:12:37;;;;;;;3.73;3.20;;;;;;;23.18;84.69;97664.75;4954313;28;20239;-73
2021/08/18 09:15:23;;;;;;;4.00;3.60;;;;;;;23.22;84.48;97670.00;4955725;28;20337;-72
2021/08/18 09:17:50;;;;;;;5.23;3.40;;;;;;;23.10;84.35;97656.88;4955759;28;20304;-69
2021/08/18 09:20:18;;;;;;;3.80;3.40;;;;;;;22.92;84.38;97623.03;4953925;28;20298;-74
2021/08/18 09:22:47;;;;;;;4.40;3.53;;;;;;;23.20;84.15;97669.06;4952825;28;20964;-73
2021/08/18 09:25:16;;;;;;;3.90;3.50;;;;;;;23.22;83.89;97671.69;4953374;28;20247;-73
2021/08/18 09:27:44;;;;;;;5.57;3.60;;;;;;;23.11;83.95;97655.16;4956674;28;20871;-69
2021/08/18 09:30:38;;;;;;;4.67;3.93;;;;;;;23.23;84.01;97676.84;4954870;28;20298;-68
2021/08/18 09:33:12;;;;;;;4.23;3.60;;;;;;;23.23;84.02;97673.41;4950894;28;20307;-70
2021/08/18 09:35:39;;;;;;;4.80;3.40;;;;;;;22.97;83.98;97636.84;4971469;28;20297;-69
2021/08/18 09:38:09;;;;;;;6.63;4.37;;;;;;;23.11;83.82;97655.16;4954368;28;20592;-71
2021/08/18 09:40:40;;;;;;;4.73;3.53;;;;;;;23.15;83.80;97662.09;4954294;28;20278;-72
2021/08/18 09:43:14;;;;;;;5.30;3.70;;;;;;;23.15;83.51;97662.09;4952833;28;20295;-69
2021/08/18 09:45:42;;;;;;;3.93;3.53;;;;;;;23.03;83.47;97642.13;4953914;28;20266;-69
2021/08/18 09:48:16;;;;;;;4.00;3.60;;;;;;;23.24;83.30;97677.75;4938372;28;20646;-71
2021/08/18 09:50:44;;;;;;;4.10;3.27;;;;;;;23.23;83.34;97663.16;4953704;28;20302;-72
2021/08/18 09:53:12;;;;;;;4.80;3.60;;;;;;;23.15;83.41;97654.41;4952719;28;20387;-71
2021/08/18 09:55:41;;;;;;;4.63;3.30;;;;;;;23.16;83.42;97662.16;4937845;28;20655;-72
2021/08/18 09:58:19;;;;;;;4.03;3.27;;;;;;;23.17;83.47;97668.13;4938914;28;20227;-73
2021/08/18 10:00:45;;;;;;;4.03;3.63;;;;;;;23.16;83.54;97664.72;4969551;28;20298;-73
2021/08/18 10:03:12;;;;;;;4.07;3.67;;;;;;;23.14;83.68;97658.66;4952002;28;20219;-71
2021/08/18 10:05:40;;;;;;;4.57;3.60;;;;;;;23.15;83.79;97651.84;4953694;28;20230;-75
2021/08/18 10:08:10;;;;;;;5.27;3.53;;;;;;;23.18;83.84;97665.59;4953980;28;20212;-69
2021/08/18 10:10:40;;;;;;;6.40;3.60;;;;;;;23.27;83.88;97672.69;4937677;28;20212;-71
2021/08/18 10:13:07;;;;;;;3.93;3.30;;;;;;;23.27;83.91;97680.41;4952930;28;20263;-71
2021/08/18 10:15:34;;;;;;;4.13;3.47;;;;;;;23.19;84.27;97662.22;4969780;28;21095;-68
2021/08/18 10:18:01;;;;;;;3.40;3.10;;;;;;;23.27;84.01;97673.53;4945512;28;20690;-73
2021/08/18 10:20:28;;;;;;;7.70;3.73;;;;;;;23.20;84.33;97668.19;4956053;28;20226;-70
2021/08/18 10:23:02;;;;;;;4.80;3.20;;;;;;;23.04;84.46;97630.19;4952429;28;20207;-72
2021/08/18 10:25:34;;;;;;;4.37;3.43;;;;;;;23.27;84.34;97673.53;4937781;28;20314;-72
2021/08/18 10:28:02;;;;;;;4.93;3.60;;;;;;;23.28;84.40;97667.63;4953687;28;21110;-69
2021/08/18 10:30:29;;;;;;;4.77;3.80;;;;;;;23.19;84.53;97651.09;4952577;28;20326;-71
2021/08/18 10:32:55;;;;;;;4.40;3.60;;;;;;;23.27;84.61;97676.13;4951675;28;20306;-74
2021/08/18 10:35:34;;;;;;;7.33;3.90;;;;;;;23.28;84.91;97661.59;4951819;28;20277;-69
2021/08/18 10:38:29;;;;;;;5.00;3.70;;;;;;;23.28;84.92;97674.44;4953709;28;20203;-72
2021/08/18 10:40:55;;;;;;;4.40;3.43;;;;;;;22.28;84.81;97500.94;4952767;28;20207;-71
2021/08/18 10:43:58;;;;;;;4.77;3.63;;;;;;;23.27;85.05;97663.28;4950238;28;20219;-72
2021/08/18 10:46:26;;;;;;;4.57;3.83;;;;;;;23.26;85.11;97673.50;4952697;28;20294;-70
2021/08/18 10:48:55;;;;;;;4.80;3.83;;;;;;;23.26;85.50;97668.38;4952157;28;20314;-73
2021/08/18 10:51:50;;;;;;;6.20;3.87;;;;;;;23.24;85.46;97657.25;4952826;28;20294;-76
2021/08/18 10:54:42;;;;;;;7.23;3.67;;;;;;;23.24;85.51;97659.81;4944853;28;20362;-70
2021/08/18 10:57:40;;;;;;;6.60;4.27;;;;;;;23.23;85.60;97655.44;4952977;28;20569;-70
2021/08/18 11:00:22;;;;;;;5.70;4.07;;;;;;;23.22;85.81;97662.28;4953823;28;20278;-73
2021/08/18 11:02:59;;;;;;;7.07;4.33;;;;;;;23.22;85.94;97657.16;4935033;28;20204;-70
2021/08/18 11:05:29;;;;;;;5.77;4.20;;;;;;;23.21;86.07;97657.97;4952005;28;20235;-74
2021/08/18 11:08:18;;;;;;;7.60;4.43;;;;;;;23.13;85.89;97633.88;4936083;28;20211;-70
2021/08/18 11:10:51;;;;;;;6.63;4.17;;;;;;;23.22;86.22;97654.59;4951548;28;20319;-70
2021/08/18 11:13:19;;;;;;;6.37;4.30;;;;;;;23.21;86.13;97645.16;4951161;28;20212;-68
2021/08/18 11:15:45;;;;;;;6.70;4.43;;;;;;;23.21;86.18;97650.28;4968255;28;20233;-76
2021/08/18 11:18:12;;;;;;;8.63;4.37;;;;;;;23.21;86.26;97652.84;4953000;28;20693;-69
2021/08/18 11:20:45;;;;;;;6.50;4.00;;;;;;;23.22;86.36;97651.16;4936736;28;20334;-71
2021/08/18 11:23:12;;;;;;;12.97;4.43;;;;;;;22.87;86.13;97595.59;4920540;28;20460;-69
2021/08/18 11:25:45;;;;;;;6.80;4.43;;;;;;;23.14;86.58;97634.72;4936191;28;20369;-69
2021/08/18 11:28:21;;;;;;;6.77;4.40;;;;;;;23.23;86.50;97647.75;4936212;28;20219;-70
2021/08/18 11:31:14;;;;;;;7.40;4.17;;;;;;;22.35;86.36;97488.31;4951517;28;20235;-75
2021/08/18 11:33:41;;;;;;;7.93;4.63;;;;;;;23.15;86.54;97634.75;4948574;28;20294;-71
2021/08/18 11:36:15;;;;;;;7.80;3.87;;;;;;;23.23;86.51;97643.50;4937459;28;20294;-71
2021/08/18 11:38:41;;;;;;;5.53;3.97;;;;;;;23.24;86.38;97645.25;4953830;28;20764;-71